Time;durP1;ratioP1;P1;durP2;ratioP2;P2;SDS_P1;SDS_P2;PMS_P1;PMS_P2;Temp;Humidity;BMP_temperature;BMP_pressure;BME280_temperature;BME280_humidity;BME280_pressure;Samples;Min_cycle;Max_cycle;Signal;HPM_P1;HPM_P2
2022/05/29 00:01:53;;;;;;;6.88;2.08;;;9.70;99.90;;;;;;5043652;28;20041;-69
2022/05/29 00:04:20;;;;;;;13.15;3.47;;;9.80;99.90;;;;;;5044120;28;20041;-74
2022/05/29 00:06:50;;;;;;;8.55;2.85;;;9.70;99.90;;;;;;5043579;28;20029;-72
2022/05/29 00:09:31;;;;;;;6.57;2.25;;;9.80;99.90;;;;;;5043534;28;20032;-73
2022/05/29 00:11:59;;;;;;;5.00;2.33;;;9.70;99.90;;;;;;5043147;28;20136;-72
2022/05/29 00:14:25;;;;;;;5.68;2.22;;;9.70;99.90;;;;;;5043145;28;20033;-71
2022/05/29 00:16:51;;;;;;;17.08;3.17;;;9.70;99.90;;;;;;5043395;28;20037;-72
2022/05/29 00:19:16;;;;;;;13.85;3.60;;;9.70;99.90;;;;;;5025606;28;20032;-72
2022/05/29 00:21:42;;;;;;;10.32;2.70;;;9.70;99.90;;;;;;5043317;28;20409;-71
2022/05/29 00:24:08;;;;;;;5.22;2.30;;;9.70;99.90;;;;;;5043329;28;20026;-72
2022/05/29 00:26:34;;;;;;;5.47;2.35;;;9.70;99.90;;;;;;5043344;28;20025;-71
2022/05/29 00:28:59;;;;;;;9.93;2.92;;;9.70;99.90;;;;;;5025393;28;20036;-71
2022/05/29 00:31:26;;;;;;;9.65;2.55;;;9.70;99.90;;;;;;5042697;28;20104;-72
2022/05/29 00:33:51;;;;;;;8.23;2.25;;;9.70;99.90;;;;;;5043119;28;20028;-71
2022/05/29 00:36:18;;;;;;;4.40;1.70;;;9.70;99.90;;;;;;5042464;28;20073;-72
2022/05/29 00:38:47;;;;;;;6.70;2.08;;;9.70;99.90;;;;;;5043128;28;20056;-72
2022/05/29 00:41:29;;;;;;;8.00;2.88;;;9.70;99.90;;;;;;5042960;28;20060;-71
2022/05/29 00:44:23;;;;;;;4.32;2.10;;;9.70;99.90;;;;;;5041958;28;20029;-71
2022/05/29 00:47:00;;;;;;;7.70;3.05;;;9.70;99.90;;;;;;5042985;28;20428;-71
2022/05/29 00:49:29;;;;;;;5.22;2.15;;;9.70;99.90;;;;;;5042509;28;20018;-72
2022/05/29 00:52:08;;;;;;;10.27;2.38;;;9.70;99.90;;;;;;5042569;28;20022;-70
2022/05/29 00:54:42;;;;;;;8.98;2.88;;;9.60;99.90;;;;;;5042579;28;20055;-70
2022/05/29 00:57:23;;;;;;;4.30;2.20;;;9.60;99.90;;;;;;5042912;28;20024;-70
2022/05/29 00:59:49;;;;;;;10.48;1.70;;;9.60;99.90;;;;;;5042789;28;20097;-69
2022/05/29 01:02:15;;;;;;;6.28;2.47;;;9.70;99.90;;;;;;5042647;28;20030;-72
2022/05/29 01:04:45;;;;;;;13.00;2.28;;;9.60;99.90;;;;;;5025000;28;20021;-71
2022/05/29 01:07:14;;;;;;;6.85;2.22;;;9.60;99.90;;;;;;5042312;28;20025;-72
2022/05/29 01:09:42;;;;;;;7.80;2.53;;;9.60;99.90;;;;;;5042634;28;20026;-72
2022/05/29 01:12:19;;;;;;;15.27;3.45;;;9.60;99.90;;;;;;5042059;28;20255;-74
2022/05/29 01:15:18;;;;;;;15.90;2.72;;;9.60;99.90;;;;;;5024663;28;20136;-73
2022/05/29 01:17:47;;;;;;;11.15;2.40;;;9.60;99.90;;;;;;5042460;28;20025;-71
2022/05/29 01:20:21;;;;;;;4.07;1.80;;;9.70;99.90;;;;;;5042332;28;20017;-71
2022/05/29 01:22:46;;;;;;;4.85;2.17;;;9.70;99.90;;;;;;5042264;28;20029;-71
2022/05/29 01:25:39;;;;;;;11.50;2.30;;;9.60;99.90;;;;;;5042525;28;20044;-71
2022/05/29 01:28:25;;;;;;;12.82;2.47;;;9.60;99.90;;;;;;5041773;28;20041;-72
2022/05/29 01:31:09;;;;;;;5.00;2.22;;;9.70;99.90;;;;;;5042372;28;20076;-73
2022/05/29 01:33:41;;;;;;;10.73;2.50;;;9.70;99.90;;;;;;5042286;28;20025;-73
2022/05/29 01:36:31;;;;;;;7.05;1.98;;;9.70;99.90;;;;;;5024401;28;20485;-71
2022/05/29 01:39:09;;;;;;;7.07;2.00;;;9.70;99.90;;;;;;5042191;28;20075;-72
2022/05/29 01:41:36;;;;;;;11.77;2.50;;;9.70;99.90;;;;;;5041727;28;20025;-73
2022/05/29 01:44:13;;;;;;;10.57;2.55;;;9.70;99.90;;;;;;5041146;28;20048;-72
2022/05/29 01:46:39;;;;;;;18.27;1.98;;;9.70;99.90;;;;;;5041775;28;20120;-74
2022/05/29 01:49:25;;;;;;;4.55;2.20;;;9.70;99.90;;;;;;5024460;28;20029;-74
2022/05/29 01:51:54;;;;;;;7.07;1.92;;;9.70;99.90;;;;;;5041826;28;20049;-71
2022/05/29 01:54:47;;;;;;;4.38;1.83;;;9.70;99.90;;;;;;5043993;28;20503;-72
2022/05/29 01:57:34;;;;;;;10.25;1.95;;;9.70;99.90;;;;;;5045988;28;20037;-74
2022/05/29 02:00:06;;;;;;;9.63;2.75;;;9.70;99.90;;;;;;5027997;28;20025;-72
2022/05/29 02:03:02;;;;;;;3.70;1.50;;;9.70;99.90;;;;;;5045609;28;20037;-71
2022/05/29 02:05:33;;;;;;;6.18;2.08;;;9.70;99.90;;;;;;5045451;28;20024;-71
2022/05/29 02:08:08;;;;;;;3.22;1.48;;;9.70;99.90;;;;;;5045885;28;20124;-72
2022/05/29 02:10:43;;;;;;;13.55;2.60;;;9.70;99.90;;;;;;5045677;28;20045;-71
2022/05/29 02:13:25;;;;;;;9.43;2.17;;;9.70;99.90;;;;;;5045182;28;20406;-73
2022/05/29 02:16:13;;;;;;;13.82;2.30;;;9.70;99.90;;;;;;5045403;28;20052;-71
2022/05/29 02:18:57;;;;;;;3.38;2.03;;;9.70;99.90;;;;;;5045524;28;20029;-72
2022/05/29 02:21:28;;;;;;;;;;;9.70;99.90;;;;;;5027774;28;20052;-72
2022/05/29 02:23:58;;;;;;;10.40;2.10;;;9.70;99.90;;;;;;5045578;28;19988;-72
2022/05/29 02:26:29;;;;;;;10.15;2.58;;;9.70;99.90;;;;;;5045370;28;20038;-71
2022/05/29 02:29:08;;;;;;;4.38;1.85;;;9.70;99.90;;;;;;5045227;28;20018;-72
2022/05/29 02:32:03;;;;;;;7.57;2.30;;;9.70;99.90;;;;;;5045144;28;20049;-72
2022/05/29 02:34:48;;;;;;;7.25;2.03;;;9.70;99.90;;;;;;5025552;28;20064;-73
2022/05/29 02:37:23;;;;;;;6.53;2.78;;;9.70;99.90;;;;;;5045208;28;20030;-74
2022/05/29 02:39:58;;;;;;;11.05;2.60;;;9.80;99.90;;;;;;5045083;28;20026;-73
2022/05/29 02:42:49;;;;;;;2.85;1.45;;;9.70;99.90;;;;;;5044753;28;20393;-72
2022/05/29 02:45:23;;;;;;;4.45;2.05;;;9.70;99.90;;;;;;5044898;28;20049;-73
2022/05/29 02:47:58;;;;;;;5.60;2.20;;;9.70;99.90;;;;;;5044775;28;20417;-74
2022/05/29 02:50:40;;;;;;;8.88;2.53;;;9.80;99.90;;;;;;5044883;28;20033;-72
2022/05/29 02:53:10;;;;;;;6.13;2.55;;;9.80;99.90;;;;;;5027190;28;20026;-71
2022/05/29 02:55:37;;;;;;;17.25;3.42;;;9.70;99.90;;;;;;5044927;28;20068;-71
2022/05/29 02:58:06;;;;;;;8.88;3.17;;;9.80;99.90;;;;;;5026794;28;20071;-73
2022/05/29 03:01:10;;;;;;;9.10;3.05;;;9.80;99.90;;;;;;5044798;28;20033;-71
2022/05/29 03:03:35;;;;;;;4.97;2.28;;;9.70;99.90;;;;;;5045053;28;20021;-74
2022/05/29 03:06:28;;;;;;;4.82;1.77;;;9.70;99.90;;;;;;5043846;28;20035;-74
2022/05/29 03:09:06;;;;;;;4.60;1.98;;;9.80;99.90;;;;;;5044373;28;20025;-75
2022/05/29 03:11:46;;;;;;;6.95;2.15;;;9.80;99.90;;;;;;5026123;28;20053;-74
2022/05/29 03:14:42;;;;;;;10.80;2.88;;;9.80;99.90;;;;;;5044113;28;20431;-75
2022/05/29 03:17:28;;;;;;;7.32;2.53;;;9.80;99.90;;;;;;5044871;28;20021;-74
2022/05/29 03:20:35;;;;;;;11.23;3.25;;;9.80;99.90;;;;;;5044098;28;20072;-72
2022/05/29 03:23:14;;;;;;;19.10;3.05;;;9.80;99.90;;;;;;5043847;28;20033;-72
2022/05/29 03:25:46;;;;;;;21.40;3.00;;;9.80;99.90;;;;;;5044469;28;20421;-73
2022/05/29 03:28:38;;;;;;;10.10;2.70;;;9.80;99.90;;;;;;5044278;28;20029;-73
2022/05/29 03:31:09;;;;;;;6.22;2.47;;;9.80;99.90;;;;;;5043857;28;20710;-72
2022/05/29 03:33:37;;;;;;;14.05;3.08;;;9.80;99.90;;;;;;5044516;28;20099;-73
2022/05/29 03:36:08;;;;;;;9.88;3.03;;;9.80;99.90;;;;;;5026172;28;20041;-73
2022/05/29 03:38:34;;;;;;;12.05;2.80;;;9.80;99.90;;;;;;5044277;28;20112;-71
2022/05/29 03:41:03;;;;;;;7.32;2.20;;;9.80;99.90;;;;;;5043600;28;21117;-72
2022/05/29 03:43:28;;;;;;;5.47;2.10;;;9.80;99.90;;;;;;5043657;28;20025;-72
2022/05/29 03:45:54;;;;;;;6.03;2.22;;;9.80;99.90;;;;;;5043970;28;20595;-72
2022/05/29 03:48:19;;;;;;;7.20;2.65;;;9.80;99.90;;;;;;5044009;28;20021;-71
2022/05/29 03:50:45;;;;;;;9.95;2.25;;;9.80;99.90;;;;;;5043970;28;20048;-74
2022/05/29 03:53:10;;;;;;;3.53;1.75;;;9.80;99.90;;;;;;5044019;28;20438;-73
2022/05/29 03:55:36;;;;;;;28.05;3.58;;;9.80;99.90;;;;;;5044132;28;20042;-73
2022/05/29 03:58:02;;;;;;;7.07;2.00;;;9.80;99.90;;;;;;5043827;28;20503;-73
2022/05/29 04:00:28;;;;;;;4.22;2.22;;;9.80;99.90;;;;;;5043739;28;20020;-74
2022/05/29 04:02:53;;;;;;;10.55;2.22;;;9.90;99.90;;;;;;5043896;28;20018;-73
2022/05/29 04:05:21;;;;;;;7.53;2.22;;;9.80;99.90;;;;;;5043592;28;20025;-70
2022/05/29 04:13:21;;;;;;;11.38;2.72;;;9.90;99.90;;;;;;5043303;28;20064;-72
2022/05/29 04:15:46;;;;;;;16.00;2.58;;;9.90;99.90;;;;;;5025702;28;20472;-74
2022/05/29 04:18:17;;;;;;;7.55;2.45;;;10.00;99.90;;;;;;5043588;28;20029;-72
2022/05/29 04:20:44;;;;;;;11.73;2.25;;;9.90;99.90;;;;;;5025369;28;20606;-73
2022/05/29 04:23:11;;;;;;;3.60;1.90;;;9.90;99.90;;;;;;5043286;28;20022;-73
2022/05/29 04:25:38;;;;;;;14.68;2.47;;;10.00;99.90;;;;;;5043031;28;20385;-72
2022/05/29 04:28:07;;;;;;;6.95;2.63;;;10.00;99.90;;;;;;5043214;28;20026;-73
2022/05/29 04:30:32;;;;;;;7.15;2.13;;;10.00;99.90;;;;;;5042716;28;20025;-72
2022/05/29 04:33:01;;;;;;;12.82;2.20;;;9.90;99.90;;;;;;5043140;28;20021;-71
2022/05/29 04:35:35;;;;;;;9.05;1.85;;;9.90;99.90;;;;;;5042844;28;20041;-71
2022/05/29 04:38:00;;;;;;;10.13;2.30;;;9.90;99.90;;;;;;5043068;28;20033;-72
2022/05/29 04:40:26;;;;;;;3.40;1.90;;;10.00;99.90;;;;;;5043058;28;20033;-71
2022/05/29 04:42:51;;;;;;;11.32;2.40;;;10.00;99.90;;;;;;5042912;28;20026;-72
2022/05/29 04:45:17;;;;;;;6.18;1.83;;;10.00;99.90;;;;;;5042995;28;20030;-71
2022/05/29 04:47:42;;;;;;;8.70;2.92;;;10.00;99.90;;;;;;5042971;28;20087;-71
2022/05/29 04:50:09;;;;;;;7.28;2.05;;;10.00;99.90;;;;;;5042846;28;20036;-75
2022/05/29 04:52:35;;;;;;;5.85;1.67;;;10.00;99.90;;;;;;5042998;28;20026;-72
2022/05/29 04:55:02;;;;;;;8.13;2.03;;;10.00;99.90;;;;;;5042737;28;20081;-74
2022/05/29 04:57:28;;;;;;;10.48;2.38;;;10.00;99.90;;;;;;5042705;28;20052;-71
2022/05/29 04:59:53;;;;;;;20.02;2.50;;;10.00;99.90;;;;;;5042876;28;20029;-72
2022/05/29 05:02:19;;;;;;;11.10;2.25;;;10.10;99.90;;;;;;5042587;28;20030;-71
2022/05/29 05:04:44;;;;;;;10.68;1.88;;;10.10;99.90;;;;;;5040815;28;20021;-71
2022/05/29 05:07:10;;;;;;;20.20;2.47;;;10.00;99.90;;;;;;5042738;28;20081;-72
2022/05/29 05:09:36;;;;;;;11.45;2.60;;;10.00;99.90;;;;;;5042686;28;20028;-71
2022/05/29 05:12:02;;;;;;;8.63;2.15;;;10.00;99.90;;;;;;5040968;28;20053;-73
2022/05/29 05:14:28;;;;;;;5.45;1.77;;;10.10;99.90;;;;;;5041648;28;20132;-72
2022/05/29 05:16:54;;;;;;;9.45;1.98;;;10.10;99.90;;;;;;5039842;28;20034;-71
2022/05/29 05:19:20;;;;;;;7.25;1.83;;;10.10;99.90;;;;;;5040929;28;20039;-73
2022/05/29 05:21:46;;;;;;;4.90;2.10;;;10.10;99.90;;;;;;5041574;28;20041;-72
2022/05/29 05:24:12;;;;;;;7.00;2.17;;;10.10;99.90;;;;;;5042333;28;20038;-73
2022/05/29 05:26:39;;;;;;;7.35;2.13;;;10.10;99.90;;;;;;5041690;28;20040;-74
2022/05/29 05:29:04;;;;;;;8.60;2.58;;;10.10;99.90;;;;;;5041829;28;20025;-71
2022/05/29 05:31:30;;;;;;;8.55;2.63;;;10.10;99.90;;;;;;5040996;28;20036;-73
2022/05/29 05:33:56;;;;;;;7.32;2.15;;;10.10;99.90;;;;;;5040019;28;20089;-73
2022/05/29 05:36:22;;;;;;;11.25;3.05;;;10.20;99.90;;;;;;5041602;28;20077;-72
2022/05/29 05:38:48;;;;;;;18.95;2.95;;;10.20;99.90;;;;;;5042175;28;20053;-72
2022/05/29 05:41:14;;;;;;;4.00;2.00;;;10.20;99.90;;;;;;5040857;28;20029;-73
2022/05/29 05:43:41;;;;;;;4.68;1.92;;;10.20;99.90;;;;;;5038698;28;20029;-72
2022/05/29 05:46:08;;;;;;;6.50;1.88;;;10.20;99.90;;;;;;5037042;28;20033;-71
2022/05/29 05:48:33;;;;;;;6.78;2.65;;;10.30;99.90;;;;;;5024246;28;20052;-72
2022/05/29 05:51:01;;;;;;;8.00;1.70;;;10.30;99.90;;;;;;5041821;28;20025;-73
2022/05/29 05:53:27;;;;;;;11.23;2.15;;;10.30;99.90;;;;;;5040797;28;20101;-71
2022/05/29 05:55:52;;;;;;;9.05;2.10;;;10.20;99.90;;;;;;5041001;28;20041;-72
2022/05/29 05:58:18;;;;;;;4.95;2.05;;;10.30;99.90;;;;;;5023506;28;20014;-71
2022/05/29 06:00:47;;;;;;;11.77;3.17;;;10.30;99.90;;;;;;5042044;28;20056;-70
2022/05/29 06:03:12;;;;;;;7.72;2.42;;;10.20;99.90;;;;;;5041860;28;20056;-70
2022/05/29 06:05:38;;;;;;;9.15;2.63;;;10.20;99.90;;;;;;5039600;28;20038;-71
2022/05/29 06:08:05;;;;;;;15.43;2.05;;;10.20;99.90;;;;;;5040665;28;20048;-72
2022/05/29 06:10:31;;;;;;;2.03;1.52;;;10.20;99.90;;;;;;5040608;28;20021;-69
2022/05/29 06:13:04;;;;;;;21.13;2.70;;;10.20;99.90;;;;;;5041447;28;20131;-71
2022/05/29 06:15:29;;;;;;;6.70;2.10;;;10.10;99.90;;;;;;5040553;28;20030;-71
2022/05/29 06:17:59;;;;;;;4.75;1.98;;;10.20;99.90;;;;;;5021445;28;20065;-71
2022/05/29 06:20:26;;;;;;;3.63;1.45;;;10.20;99.90;;;;;;5039197;28;20022;-74
2022/05/29 06:22:52;;;;;;;6.20;1.70;;;10.20;99.90;;;;;;5038684;28;20029;-71
2022/05/29 06:25:18;;;;;;;6.75;2.22;;;10.20;99.90;;;;;;5039170;28;20037;-74
2022/05/29 06:27:44;;;;;;;11.93;2.25;;;10.20;99.90;;;;;;5022979;28;20029;-71
2022/05/29 06:30:13;;;;;;;6.18;1.88;;;10.20;99.90;;;;;;5040717;28;20030;-75
2022/05/29 06:32:39;;;;;;;5.05;2.28;;;10.30;99.90;;;;;;5040057;28;20385;-73
2022/05/29 06:35:08;;;;;;;4.00;1.58;;;10.30;99.90;;;;;;5041518;28;20057;-71
2022/05/29 06:37:35;;;;;;;1.85;1.17;;;10.30;99.90;;;;;;5040837;28;20072;-73
2022/05/29 06:40:01;;;;;;;10.02;1.75;;;10.40;99.90;;;;;;5040603;28;20033;-74
2022/05/29 06:42:26;;;;;;;7.65;1.98;;;10.40;99.90;;;;;;5044035;28;20028;-73
2022/05/29 06:44:52;;;;;;;6.07;1.58;;;10.40;99.90;;;;;;5027371;28;20022;-73
2022/05/29 06:47:18;;;;;;;9.50;1.92;;;10.40;99.90;;;;;;5044685;28;20043;-74
2022/05/29 06:49:48;;;;;;;10.70;1.75;;;10.50;99.90;;;;;;5024497;28;20034;-72
2022/05/29 06:52:15;;;;;;;1.85;0.93;;;10.40;99.90;;;;;;5042607;28;20071;-73
2022/05/29 06:54:41;;;;;;;2.75;1.45;;;10.40;99.90;;;;;;5044577;28;20080;-75
2022/05/29 06:57:08;;;;;;;15.23;1.88;;;10.40;99.90;;;;;;5042669;28;20041;-72
2022/05/29 07:08:00;;;;;;;5.88;2.28;;;10.30;99.90;;;;;;5044839;28;20052;-75
2022/05/29 07:10:28;;;;;;;3.80;1.52;;;10.30;99.90;;;;;;5044547;28;20024;-76
2022/05/29 07:12:54;;;;;;;2.90;1.90;;;10.30;99.90;;;;;;5044358;28;20046;-76
2022/05/29 07:15:20;;;;;;;10.07;2.25;;;10.30;99.90;;;;;;5044478;28;20022;-74
2022/05/29 07:17:46;;;;;;;8.02;2.05;;;10.30;99.90;;;;;;5044521;28;20017;-74
2022/05/29 07:20:13;;;;;;;2.17;1.10;;;10.20;99.90;;;;;;5042560;28;20098;-73
2022/05/29 07:22:41;;;;;;;6.43;2.15;;;10.30;99.90;;;;;;5042702;28;20582;-75
2022/05/29 07:25:08;;;;;;;4.15;1.88;;;10.40;99.90;;;;;;5042435;28;20093;-73
2022/05/29 07:27:34;;;;;;;6.13;1.75;;;10.40;99.90;;;;;;5025955;28;20044;-75
2022/05/29 07:29:59;;;;;;;4.72;2.17;;;10.40;99.90;;;;;;5042516;28;20033;-73
2022/05/29 07:32:25;;;;;;;12.18;2.03;;;10.50;99.90;;;;;;5025765;28;20485;-76
2022/05/29 07:34:51;;;;;;;5.53;1.10;;;10.40;99.90;;;;;;5043582;28;20038;-72
2022/05/29 07:37:18;;;;;;;3.42;1.27;;;10.40;99.90;;;;;;5024214;28;20460;-76
2022/05/29 07:39:47;;;;;;;3.83;1.17;;;10.40;99.90;;;;;;5024724;28;20052;-76
2022/05/29 07:44:59;;;;;;;2.53;1.10;;;10.40;99.90;;;;;;5043847;28;20044;-76
2022/05/29 07:47:35;;;;;;;5.25;1.17;;;10.30;99.90;;;;;;5042526;28;20060;-75
2022/05/29 07:50:00;;;;;;;5.65;1.60;;;10.30;99.90;;;;;;5041976;28;20029;-71
2022/05/29 07:52:26;;;;;;;3.85;1.30;;;10.30;99.90;;;;;;5041923;28;20030;-71
2022/05/29 07:54:52;;;;;;;3.95;1.23;;;10.30;99.90;;;;;;5035208;28;20048;-73
2022/05/29 07:57:19;;;;;;;3.05;1.58;;;10.30;99.90;;;;;;5041107;28;20022;-71
2022/05/29 07:59:45;;;;;;;8.52;1.88;;;10.30;99.90;;;;;;5043291;28;20040;-72
2022/05/29 08:02:10;;;;;;;9.48;2.05;;;10.30;99.90;;;;;;5044024;28;20022;-71
2022/05/29 08:04:37;;;;;;;8.80;2.55;;;10.40;99.90;;;;;;5042278;28;20030;-71
2022/05/29 08:07:04;;;;;;;11.13;2.28;;;10.50;99.90;;;;;;5024998;28;20033;-72
2022/05/29 08:09:29;;;;;;;5.07;1.85;;;10.50;99.90;;;;;;5022694;28;20198;-75
2022/05/29 08:11:55;;;;;;;6.80;2.25;;;10.60;99.90;;;;;;5024601;28;20133;-75
2022/05/29 08:14:20;;;;;;;3.30;1.60;;;10.70;99.90;;;;;;5042597;28;20049;-74
2022/05/29 08:16:46;;;;;;;1.90;1.55;;;10.60;99.90;;;;;;5043603;28;20116;-73
2022/05/29 08:19:13;;;;;;;3.30;1.60;;;10.60;99.90;;;;;;5041259;28;20044;-73
2022/05/29 08:21:40;;;;;;;7.30;1.67;;;10.60;99.90;;;;;;5024122;28;20066;-75
2022/05/29 08:32:19;;;;;;;5.53;2.38;;;10.80;99.90;;;;;;5035614;28;20072;-71
2022/05/29 08:34:49;;;;;;;5.65;1.52;;;10.80;99.90;;;;;;5038057;28;20049;-74
2022/05/29 08:37:15;;;;;;;2.10;1.23;;;10.80;99.90;;;;;;5020949;28;20033;-72
2022/05/29 08:39:41;;;;;;;4.45;2.08;;;10.70;99.90;;;;;;5019358;28;20024;-73
2022/05/29 08:42:13;;;;;;;4.90;1.38;;;10.80;99.90;;;;;;5040924;28;20044;-72
2022/05/29 08:44:50;;;;;;;9.25;1.85;;;10.80;99.90;;;;;;5022291;28;20033;-73
2022/05/29 08:47:26;;;;;;;5.05;1.85;;;10.80;99.90;;;;;;5040586;28;20025;-73
2022/05/29 08:49:51;;;;;;;9.73;1.95;;;10.80;99.90;;;;;;5041733;28;20033;-73
2022/05/29 08:52:43;;;;;;;2.08;1.48;;;10.80;99.90;;;;;;5023408;28;20688;-74
2022/05/29 08:55:15;;;;;;;1.35;1.10;;;10.60;99.90;;;;;;5042196;28;20033;-74
2022/05/29 08:57:45;;;;;;;4.57;1.00;;;10.60;99.90;;;;;;5042255;28;20035;-73
2022/05/29 09:00:28;;;;;;;9.90;2.08;;;10.60;99.90;;;;;;5042065;28;20457;-75
2022/05/29 09:03:21;;;;;;;5.93;1.73;;;10.60;99.90;;;;;;5041844;28;20037;-72
2022/05/29 09:05:56;;;;;;;3.88;0.95;;;10.60;99.90;;;;;;5042745;28;20064;-74
2022/05/29 09:08:31;;;;;;;2.60;0.95;;;10.70;99.90;;;;;;5024646;28;20021;-73
2022/05/29 09:11:04;;;;;;;13.02;1.67;;;10.80;99.90;;;;;;5024781;28;20021;-75
2022/05/29 09:13:42;;;;;;;4.88;1.58;;;10.90;99.90;;;;;;5040471;28;20148;-74
2022/05/29 09:16:18;;;;;;;2.65;1.20;;;11.10;99.90;;;;;;5042398;28;20042;-75
2022/05/29 09:19:00;;;;;;;3.83;1.25;;;11.10;99.90;;;;;;5042236;28;20087;-74
2022/05/29 09:21:30;;;;;;;2.13;1.00;;;11.10;99.90;;;;;;5024550;28;20037;-76
2022/05/29 09:24:04;;;;;;;5.38;1.67;;;11.10;99.90;;;;;;5042102;28;20040;-72
2022/05/29 09:26:35;;;;;;;8.52;1.90;;;11.10;99.90;;;;;;5024495;28;20037;-75
2022/05/29 09:29:01;;;;;;;2.30;1.35;;;11.30;99.90;;;;;;5041272;28;20021;-73
2022/05/29 09:31:27;;;;;;;2.10;1.08;;;11.30;99.90;;;;;;5041548;28;20052;-71
2022/05/29 09:33:53;;;;;;;2.92;1.23;;;11.30;99.90;;;;;;5042036;28;20037;-73
2022/05/29 09:36:50;;;;;;;1.83;1.02;;;11.30;99.90;;;;;;5023270;28;20030;-75
2022/05/29 09:39:35;;;;;;;2.60;1.10;;;11.30;99.90;;;;;;5022854;28;20516;-71
2022/05/29 09:42:27;;;;;;;4.28;1.00;;;11.50;99.90;;;;;;5041585;28;20017;-71
2022/05/29 09:45:15;;;;;;;0.93;0.77;;;11.50;99.90;;;;;;5030085;28;20087;-72
2022/05/29 09:50:43;;;;;;;5.80;1.20;;;11.50;99.90;;;;;;5041442;28;20100;-75
2022/05/29 09:53:25;;;;;;;4.88;1.08;;;11.70;99.90;;;;;;5039388;28;20021;-77
2022/05/29 09:55:53;;;;;;;11.75;1.42;;;11.60;99.90;;;;;;5039892;28;20140;-74
2022/05/29 09:58:26;;;;;;;6.20;1.70;;;11.60;99.90;;;;;;5040924;28;20052;-71
2022/05/29 10:01:02;;;;;;;2.28;1.10;;;11.70;99.90;;;;;;5042038;28;20053;-74
2022/05/29 10:03:44;;;;;;;1.42;1.00;;;11.60;99.90;;;;;;5041986;28;20049;-70
2022/05/29 10:06:28;;;;;;;3.45;1.15;;;11.60;99.90;;;;;;5042105;28;20072;-76
2022/05/29 10:09:15;;;;;;;6.30;1.52;;;11.70;99.90;;;;;;5023898;28;20041;-72
2022/05/29 10:11:45;;;;;;;4.88;1.10;;;11.50;99.90;;;;;;5040730;28;20136;-75
2022/05/29 10:14:27;;;;;;;7.75;1.85;;;11.50;99.90;;;;;;5023573;28;20046;-75
2022/05/29 10:16:55;;;;;;;5.18;2.15;;;11.70;99.90;;;;;;5045219;28;20038;-73
2022/05/29 10:19:34;;;;;;;5.25;1.55;;;11.70;99.90;;;;;;5044350;28;20499;-74
2022/05/29 10:22:03;;;;;;;8.85;1.50;;;11.80;99.90;;;;;;5027578;28;20025;-75
2022/05/29 10:24:37;;;;;;;4.10;1.40;;;11.90;99.90;;;;;;5026461;28;20061;-71
2022/05/29 10:27:22;;;;;;;4.03;1.33;;;12.00;99.90;;;;;;5038032;28;20068;-75
2022/05/29 10:30:12;;;;;;;3.78;1.52;;;11.90;99.90;;;;;;5040145;28;20560;-75
2022/05/29 10:32:42;;;;;;;4.88;1.30;;;11.80;99.90;;;;;;5027780;28;20044;-74
2022/05/29 10:35:20;;;;;;;2.08;1.27;;;11.70;99.90;;;;;;5026953;28;20041;-72
2022/05/29 10:37:47;;;;;;;2.35;1.30;;;11.60;99.90;;;;;;5045465;28;20029;-73
2022/05/29 10:40:28;;;;;;;1.73;1.25;;;11.70;99.90;;;;;;5044338;28;20103;-73
2022/05/29 10:43:00;;;;;;;4.90;1.38;;;11.80;99.90;;;;;;5045092;28;20041;-71
2022/05/29 10:45:44;;;;;;;7.28;1.50;;;11.80;99.90;;;;;;5045003;28;20120;-71
2022/05/29 10:48:37;;;;;;;2.70;1.40;;;11.80;99.90;;;;;;5044636;28;20122;-73
2022/05/29 10:51:14;;;;;;;1.98;1.33;;;11.70;99.90;;;;;;5044868;28;20045;-72
2022/05/29 10:53:58;;;;;;;5.68;1.50;;;11.50;99.90;;;;;;5027389;28;20029;-71
2022/05/29 10:56:34;;;;;;;5.07;1.20;;;11.30;99.90;;;;;;5044684;28;20626;-72
2022/05/29 10:59:25;;;;;;;4.57;0.98;;;11.20;99.90;;;;;;5043865;28;20085;-71
2022/05/29 11:05:16;;;;;;;3.55;0.90;;;10.90;99.90;;;;;;5044808;28;20048;-72
2022/05/29 11:08:01;;;;;;;3.90;1.02;;;10.70;99.90;;;;;;5044922;28;20029;-74
2022/05/29 11:11:18;;;;;;;3.72;1.00;;;10.70;99.90;;;;;;5044560;28;20037;-71
2022/05/29 11:13:46;;;;;;;4.32;0.85;;;10.70;99.90;;;;;;5044184;28;20069;-72
2022/05/29 11:16:19;;;;;;;3.28;1.30;;;10.90;99.90;;;;;;5044577;28;20040;-73
2022/05/29 11:19:28;;;;;;;1.75;0.85;;;10.90;99.90;;;;;;5044744;28;20088;-75
2022/05/29 11:22:13;;;;;;;9.07;1.30;;;10.90;99.90;;;;;;5043955;28;20022;-74
2022/05/29 11:24:58;;;;;;;2.63;1.10;;;10.90;99.90;;;;;;5044259;28;20029;-75
2022/05/29 11:27:49;;;;;;;5.32;1.10;;;10.90;99.90;;;;;;5025294;28;20041;-70
2022/05/29 11:30:47;;;;;;;3.65;0.80;;;10.90;99.90;;;;;;5043882;28;20025;-74
2022/05/29 11:33:25;;;;;;;2.05;0.80;;;11.00;99.90;;;;;;5026093;28;20116;-74
2022/05/29 11:36:09;;;;;;;2.22;0.68;;;11.00;99.90;;;;;;5043982;28;20034;-74
2022/05/29 11:38:44;;;;;;;;;;;11.00;99.90;;;;;;5044569;28;20030;-74
2022/05/29 11:41:26;;;;;;;3.47;1.20;;;11.00;99.90;;;;;;5042890;28;19908;-71
2022/05/29 11:44:00;;;;;;;7.45;2.10;;;11.10;99.90;;;;;;5044087;28;20028;-72
2022/05/29 11:53:01;;;;;;;1.52;0.88;;;11.50;99.90;;;;;;5044232;28;20033;-73
2022/05/29 11:55:35;;;;;;;3.70;0.98;;;11.80;99.90;;;;;;5042566;28;20037;-73
2022/05/29 11:58:18;;;;;;;1.90;0.80;;;11.80;99.90;;;;;;5043580;28;20018;-73
2022/05/29 12:00:58;;;;;;;7.53;1.38;;;11.80;99.90;;;;;;5044027;28;20026;-74
2022/05/29 12:03:56;;;;;;;2.63;1.40;;;11.80;99.90;;;;;;5043362;28;20022;-74
2022/05/29 12:06:38;;;;;;;2.38;1.50;;;11.90;99.90;;;;;;5019990;28;20048;-74
2022/05/29 12:09:23;;;;;;;1.95;1.23;;;11.90;99.90;;;;;;5043590;28;20072;-70
2022/05/29 12:11:52;;;;;;;;;;;11.80;99.90;;;;;;5026377;28;20022;-70
2022/05/29 12:14:20;;;;;;;3.58;1.52;;;11.70;99.90;;;;;;5041044;28;19909;-73
2022/05/29 12:16:51;;;;;;;1.98;0.80;;;11.60;99.90;;;;;;5041059;28;20041;-72
2022/05/29 12:19:25;;;;;;;3.03;1.20;;;11.50;99.90;;;;;;5041940;28;20047;-71
2022/05/29 12:21:56;;;;;;;9.68;1.35;;;11.50;99.90;;;;;;5041383;28;20029;-74
2022/05/29 12:24:28;;;;;;;5.13;1.70;;;11.30;99.90;;;;;;5042586;28;20033;-73
2022/05/29 12:27:08;;;;;;;2.20;0.90;;;11.20;99.90;;;;;;5041876;28;20021;-73
2022/05/29 12:29:57;;;;;;;5.15;1.42;;;11.20;99.90;;;;;;5043177;28;20360;-73
2022/05/29 12:32:30;;;;;;;12.68;1.55;;;11.20;99.90;;;;;;5043202;28;20033;-73
2022/05/29 12:35:09;;;;;;;3.95;1.48;;;11.20;99.90;;;;;;5040672;28;20033;-73
2022/05/29 12:37:34;;;;;;;7.55;1.38;;;11.20;99.90;;;;;;5024760;28;20033;-74
2022/05/29 12:40:13;;;;;;;4.90;1.20;;;11.30;99.90;;;;;;5040903;28;20033;-70
2022/05/29 12:42:57;;;;;;;15.98;1.55;;;11.30;99.90;;;;;;5042876;28;20096;-75
2022/05/29 12:45:35;;;;;;;7.15;1.88;;;11.50;99.90;;;;;;5042824;28;20063;-76
2022/05/29 12:48:33;;;;;;;2.88;1.30;;;11.60;99.90;;;;;;5042476;28;20045;-72
2022/05/29 12:51:36;;;;;;;2.42;0.98;;;11.70;99.90;;;;;;5042286;28;20044;-76
2022/05/29 12:54:31;;;;;;;6.18;2.17;;;11.90;99.90;;;;;;5042457;28;20029;-75
2022/05/29 12:57:16;;;;;;;12.43;1.63;;;11.90;99.90;;;;;;5042033;28;20117;-72
2022/05/29 12:59:51;;;;;;;1.17;0.82;;;11.70;99.90;;;;;;5042187;28;20079;-73
2022/05/29 13:02:40;;;;;;;1.85;0.98;;;11.50;99.90;;;;;;5040652;28;20068;-77
2022/05/29 13:05:16;;;;;;;5.88;1.27;;;11.40;99.90;;;;;;5024229;28;20021;-74
2022/05/29 13:08:00;;;;;;;4.22;1.70;;;11.30;99.90;;;;;;5042534;28;20037;-72
2022/05/29 13:10:37;;;;;;;;;;;11.20;99.90;;;;;;5041409;28;20039;-73
2022/05/29 13:13:09;;;;;;;2.10;1.27;;;11.30;99.90;;;;;;5041393;28;19951;-73
2022/05/29 13:15:39;;;;;;;2.47;1.10;;;11.40;99.90;;;;;;5041785;28;20067;-75
2022/05/29 13:18:23;;;;;;;3.80;1.48;;;11.40;99.90;;;;;;5022842;28;20397;-72
2022/05/29 13:21:19;;;;;;;5.32;1.67;;;11.50;99.90;;;;;;5042388;28;20386;-74
2022/05/29 13:23:53;;;;;;;13.82;2.30;;;11.50;99.90;;;;;;5022193;28;20039;-74
2022/05/29 13:26:18;;;;;;;8.47;1.90;;;11.50;99.90;;;;;;5040551;28;20030;-75
2022/05/29 13:28:46;;;;;;;8.68;1.52;;;11.70;99.90;;;;;;5042335;28;20717;-71
2022/05/29 13:31:16;;;;;;;8.77;1.80;;;11.90;99.90;;;;;;5024053;28;20049;-71
2022/05/29 13:33:49;;;;;;;1.40;0.93;;;12.10;99.90;;;;;;5042267;28;20437;-75
2022/05/29 13:36:41;;;;;;;6.07;1.58;;;12.10;99.90;;;;;;5041690;28;20129;-70
2022/05/29 13:39:08;;;;;;;3.45;1.20;;;12.20;99.90;;;;;;5042492;28;20036;-74
2022/05/29 13:42:05;;;;;;;9.52;2.10;;;12.10;99.90;;;;;;5039609;28;20591;-73
2022/05/29 13:44:41;;;;;;;6.72;1.67;;;12.10;99.90;;;;;;5041097;28;20029;-74
2022/05/29 13:47:19;;;;;;;4.78;1.67;;;12.10;99.90;;;;;;5040791;28;20022;-72
2022/05/29 13:50:02;;;;;;;8.65;1.85;;;12.10;99.90;;;;;;5036654;28;20032;-74
2022/05/29 13:52:36;;;;;;;7.18;1.98;;;12.10;99.90;;;;;;5030341;28;20062;-73
2022/05/29 13:55:13;;;;;;;2.65;1.45;;;12.10;99.90;;;;;;5033799;28;20041;-72
2022/05/29 14:03:58;;;;;;;13.70;1.63;;;11.90;99.90;;;;;;5040535;28;20060;-72
2022/05/29 14:06:29;;;;;;;;;;;11.80;99.90;;;;;;5040953;28;20041;-71
2022/05/29 14:08:58;;;;;;;3.85;1.58;;;11.70;99.90;;;;;;5040402;28;19936;-73